Time;durP1;ratioP1;P1;durP2;ratioP2;P2;SDS_P1;SDS_P2;PMS_P1;PMS_P2;Temp;Humidity;BMP_temperature;BMP_pressure;BME280_temperature;BME280_humidity;BME280_pressure;Samples;Min_cycle;Max_cycle;Signal;HPM_P1;HPM_P2
2023/05/22 00:00:30;;;;;;;9.68;5.80;;;;;;;25.30;45.04;101201.50;4971910;28;20093;-66
2023/05/22 00:02:57;;;;;;;11.55;5.88;;;;;;;25.29;45.04;101209.97;4972382;28;20046;-66
2023/05/22 00:05:22;;;;;;;9.43;6.38;;;;;;;25.23;45.54;101191.63;4972113;28;20030;-67
2023/05/22 00:07:48;;;;;;;8.23;5.75;;;;;;;25.21;45.93;101202.00;4973404;28;20043;-67
2023/05/22 00:10:13;;;;;;;12.23;6.32;;;;;;;25.16;45.60;101197.13;4974126;28;20035;-66
2023/05/22 00:12:39;;;;;;;11.23;5.57;;;;;;;25.10;45.76;101191.69;4971036;28;20089;-67
2023/05/22 00:15:05;;;;;;;10.73;6.15;;;;;;;25.06;45.64;101190.41;4972151;28;20031;-66
2023/05/22 00:17:30;;;;;;;12.23;6.30;;;;;;;25.02;45.20;101191.88;4971721;28;20035;-66
2023/05/22 00:20:01;;;;;;;12.95;5.53;;;;;;;25.00;46.26;101197.59;4972112;28;20035;-66
2023/05/22 00:22:27;;;;;;;11.80;6.22;;;;;;;24.97;45.68;101186.22;4960659;28;20486;-66
2023/05/22 00:24:52;;;;;;;12.15;5.57;;;;;;;24.93;45.60;101187.72;4975517;28;20090;-66
2023/05/22 00:27:17;;;;;;;12.35;6.15;;;;;;;24.87;45.71;101181.19;4975507;28;20081;-66
2023/05/22 00:29:43;;;;;;;8.93;5.57;;;;;;;24.85;46.06;101189.63;4959144;28;20126;-66
2023/05/22 00:32:08;;;;;;;13.40;5.97;;;;;;;24.82;46.53;101184.56;4975304;28;20058;-67
2023/05/22 00:34:33;;;;;;;13.13;6.47;;;;;;;24.79;46.14;101184.97;4976741;28;20031;-65
2023/05/22 00:36:59;;;;;;;12.15;6.32;;;;;;;24.75;45.75;101180.97;4976883;28;20384;-66
2023/05/22 00:39:24;;;;;;;13.07;6.43;;;;;;;24.74;46.33;101186.63;4976533;28;20050;-66
2023/05/22 00:41:50;;;;;;;13.52;6.00;;;;;;;24.70;46.22;101180.75;4976789;28;20042;-67
2023/05/22 00:44:15;;;;;;;16.17;6.18;;;;;;;24.68;46.05;101180.13;4958897;28;20026;-66
2023/05/22 00:46:41;;;;;;;14.10;7.10;;;;;;;24.63;46.27;101179.06;4976637;28;20030;-66
2023/05/22 00:49:07;;;;;;;14.02;6.85;;;;;;;24.60;46.13;101180.34;4975686;28;20118;-66
2023/05/22 00:51:32;;;;;;;10.48;6.15;;;;;;;24.61;45.72;101181.19;4976431;28;20050;-66
2023/05/22 00:53:58;;;;;;;11.45;6.65;;;;;;;24.57;46.13;101169.78;4974988;28;20399;-66
2023/05/22 00:56:23;;;;;;;16.25;6.72;;;;;;;24.57;46.13;101171.69;4975230;28;20043;-65
2023/05/22 00:58:49;;;;;;;10.65;6.78;;;;;;;24.55;46.21;101171.91;4974790;28;20390;-66
2023/05/22 01:01:16;;;;;;;14.35;6.68;;;;;;;24.52;46.46;101172.34;4959719;28;20394;-66
2023/05/22 01:03:45;;;;;;;11.27;6.93;;;;;;;24.49;46.43;101172.75;4976136;28;20550;-67
2023/05/22 01:06:12;;;;;;;12.30;6.22;;;;;;;24.48;46.33;101179.31;4974954;28;20058;-66
2023/05/22 01:08:37;;;;;;;11.77;6.85;;;;;;;24.46;46.29;101175.06;4971532;28;20032;-66
2023/05/22 01:11:10;;;;;;;11.43;6.68;;;;;;;24.43;46.06;101183.75;4944092;28;20077;-66
2023/05/22 01:13:54;;;;;;;18.92;6.85;;;;;;;24.40;46.34;101187.72;4974868;28;20027;-66
2023/05/22 01:16:31;;;;;;;14.88;7.47;;;;;;;24.37;46.76;101185.41;4959257;28;20034;-65
2023/05/22 01:19:00;;;;;;;14.45;6.80;;;;;;;24.33;46.42;101184.16;4974776;28;20047;-66
2023/05/22 01:21:31;;;;;;;20.00;7.28;;;;;;;24.30;47.18;101179.09;4975894;28;20121;-66
2023/05/22 01:24:12;;;;;;;13.73;7.10;;;;;;;24.25;47.08;101176.13;4975835;28;20570;-68
2023/05/22 01:26:59;;;;;;;12.75;6.55;;;;;;;24.21;46.43;101180.34;4975715;28;20041;-66
2023/05/22 01:29:54;;;;;;;10.15;6.40;;;;;;;24.18;46.88;101183.50;4974622;28;20031;-67
2023/05/22 01:32:21;;;;;;;13.02;7.03;;;;;;;24.16;46.89;101180.13;4974405;28;20503;-65
2023/05/22 01:34:51;;;;;;;14.45;7.75;;;;;;;24.13;47.05;101177.81;4974319;28;20101;-65
2023/05/22 01:37:20;;;;;;;14.85;7.55;;;;;;;24.10;46.36;101175.47;4974709;28;20027;-66
2023/05/22 01:39:45;;;;;;;10.50;7.13;;;;;;;24.07;46.50;101179.44;4974373;28;20113;-66
2023/05/22 01:42:11;;;;;;;16.63;7.80;;;;;;;24.07;46.99;101178.59;4974201;28;20490;-66
2023/05/22 01:44:36;;;;;;;17.50;8.30;;;;;;;24.03;47.17;101180.94;4974413;28;20121;-67
2023/05/22 01:47:03;;;;;;;13.10;7.50;;;;;;;24.02;46.55;101181.97;4975395;28;20023;-67
2023/05/22 01:49:30;;;;;;;12.68;7.03;;;;;;;23.98;47.41;101179.88;4974427;28;20030;-68
2023/05/22 01:52:00;;;;;;;14.77;7.75;;;;;;;23.91;47.50;101179.00;4974527;28;20098;-67
2023/05/22 01:54:41;;;;;;;16.45;7.93;;;;;;;23.90;47.25;101182.81;4974178;28;20380;-67
2023/05/22 01:57:14;;;;;;;12.43;8.27;;;;;;;23.87;47.17;101185.97;4957679;28;20055;-66
2023/05/22 02:00:01;;;;;;;13.30;7.55;;;;;;;23.84;47.60;101178.16;4974929;28;20453;-67
2023/05/22 02:02:27;;;;;;;13.75;7.65;;;;;;;23.80;47.12;101182.34;4974022;28;20039;-66
2023/05/22 02:04:57;;;;;;;15.95;7.63;;;;;;;23.78;47.40;101185.31;4954431;29;20506;-65
2023/05/22 02:07:26;;;;;;;14.13;7.55;;;;;;;23.74;47.07;101184.88;4954780;29;20023;-65
2023/05/22 02:09:53;;;;;;;17.52;8.18;;;;;;;23.71;47.19;101177.06;4973594;28;20030;-67
2023/05/22 02:12:19;;;;;;;16.40;8.73;;;;;;;23.65;47.03;101185.25;4973821;28;20034;-65
2023/05/22 02:14:44;;;;;;;17.27;9.10;;;;;;;23.61;47.25;101184.84;4957569;28;20410;-65
2023/05/22 02:17:11;;;;;;;15.85;8.75;;;;;;;23.56;47.36;101192.78;4973487;28;20045;-65
2023/05/22 02:19:36;;;;;;;15.52;8.98;;;;;;;23.51;47.36;101183.50;4975013;28;20110;-66
2023/05/22 02:22:02;;;;;;;13.82;8.25;;;;;;;23.47;47.05;101183.09;4973998;28;20595;-67
2023/05/22 02:24:29;;;;;;;17.73;9.07;;;;;;;23.47;47.68;101180.38;4973513;28;20075;-66
2023/05/22 02:26:55;;;;;;;14.80;8.48;;;;;;;23.44;47.42;101180.78;4973286;28;20038;-66
2023/05/22 02:29:20;;;;;;;18.30;8.85;;;;;;;23.41;48.33;101183.91;4975715;28;20405;-66
2023/05/22 02:31:45;;;;;;;17.23;9.13;;;;;;;23.40;47.58;101179.47;4957187;28;20133;-67
2023/05/22 02:34:11;;;;;;;17.52;9.07;;;;;;;23.39;47.67;101177.81;4973752;28;20027;-68
2023/05/22 02:36:36;;;;;;;21.23;10.07;;;;;;;23.37;47.31;101192.66;4973354;28;20035;-66
2023/05/22 02:39:02;;;;;;;17.63;8.93;;;;;;;23.35;47.54;101190.16;4973162;28;20046;-65
2023/05/22 02:41:27;;;;;;;18.80;8.90;;;;;;;23.32;47.62;101190.56;4974012;28;20039;-66
2023/05/22 02:43:52;;;;;;;14.25;8.68;;;;;;;23.30;47.74;101186.34;4972615;28;20078;-65
2023/05/22 02:46:18;;;;;;;19.67;9.40;;;;;;;23.26;48.22;101185.91;4973723;28;20026;-67
2023/05/22 02:48:44;;;;;;;18.90;9.45;;;;;;;23.25;48.00;101181.50;4972911;28;20411;-68
2023/05/22 02:51:10;;;;;;;15.95;9.32;;;;;;;23.24;48.30;101185.28;4973125;28;20039;-66
2023/05/22 02:53:38;;;;;;;19.88;9.90;;;;;;;23.21;48.15;101180.22;4974286;28;20097;-66
2023/05/22 02:56:07;;;;;;;16.30;9.02;;;;;;;23.16;48.21;101171.78;4974459;28;20065;-65
2023/05/22 02:58:32;;;;;;;18.38;9.27;;;;;;;23.16;48.07;101172.63;4973049;28;20403;-66
2023/05/22 03:00:58;;;;;;;17.95;11.00;;;;;;;23.15;47.69;101167.34;4973802;28;20086;-66
2023/05/22 03:03:24;;;;;;;17.40;9.30;;;;;;;23.12;48.28;101165.00;4957491;28;20035;-65
2023/05/22 03:05:53;;;;;;;18.02;10.05;;;;;;;23.10;47.88;101159.75;4973345;28;20101;-66
2023/05/22 03:08:18;;;;;;;18.25;10.02;;;;;;;23.09;48.65;101170.88;4974222;28;20109;-66
2023/05/22 03:10:44;;;;;;;17.02;9.60;;;;;;;23.06;47.71;101168.59;4956669;28;20470;-67
2023/05/22 03:13:09;;;;;;;17.70;10.02;;;;;;;23.00;48.07;101169.38;4973082;28;20031;-66
2023/05/22 03:15:34;;;;;;;21.23;10.45;;;;;;;22.97;48.58;101167.91;4972511;28;20035;-65
2023/05/22 03:18:00;;;;;;;17.92;8.95;;;;;;;22.97;48.66;101165.16;4972620;28;20042;-67
2023/05/22 03:20:25;;;;;;;18.67;9.82;;;;;;;22.94;48.38;101162.00;4953445;29;20466;-65
2023/05/22 03:22:51;;;;;;;19.15;9.35;;;;;;;22.92;48.91;101161.34;4940670;28;20026;-66
2023/05/22 03:25:16;;;;;;;18.80;10.20;;;;;;;22.91;48.01;101165.97;4973305;28;20065;-66
2023/05/22 03:27:42;;;;;;;18.13;9.82;;;;;;;22.89;48.84;101161.75;4972617;28;20557;-67
2023/05/22 03:30:07;;;;;;;24.10;10.45;;;;;;;22.86;48.11;101156.69;4956406;28;20479;-66
2023/05/22 03:32:36;;;;;;;22.10;10.73;;;;;;;22.83;49.11;101159.81;4972410;28;20035;-66
2023/05/22 03:35:03;;;;;;;16.42;10.05;;;;;;;22.81;48.86;101160.00;4973861;28;20030;-66
2023/05/22 03:37:28;;;;;;;17.08;9.90;;;;;;;22.77;49.08;101153.28;4956034;28;20035;-66
2023/05/22 03:39:54;;;;;;;15.50;9.10;;;;;;;22.76;48.25;101158.91;4972935;28;20394;-66
2023/05/22 03:42:19;;;;;;;21.38;10.00;;;;;;;22.66;48.17;101151.09;4972229;28;20058;-66
2023/05/22 03:44:45;;;;;;;20.58;10.85;;;;;;;22.71;48.79;101169.59;4972199;28;20114;-66
2023/05/22 03:47:10;;;;;;;22.27;9.93;;;;;;;22.67;48.67;101160.13;4972379;28;20161;-66
2023/05/22 03:49:36;;;;;;;24.08;10.30;;;;;;;22.65;48.85;101162.22;4956254;28;20515;-65
2023/05/22 03:52:02;;;;;;;19.23;10.10;;;;;;;22.67;48.64;101168.34;4973738;28;20033;-65
2023/05/22 03:54:27;;;;;;;18.23;9.32;;;;;;;22.65;49.46;101167.66;4973629;28;20106;-65
2023/05/22 03:56:53;;;;;;;18.42;9.57;;;;;;;22.65;48.44;101175.84;4976339;28;20122;-66
2023/05/22 03:59:18;;;;;;;18.17;9.77;;;;;;;22.60;49.10;101157.31;4956139;29;20522;-66
2023/05/22 04:01:45;;;;;;;21.48;9.77;;;;;;;22.61;48.39;101165.28;4958842;28;20037;-66
2023/05/22 04:04:11;;;;;;;22.65;9.73;;;;;;;22.64;48.56;101176.94;4976584;28;20031;-65
2023/05/22 04:06:41;;;;;;;18.08;9.27;;;;;;;22.64;48.87;101168.72;4975935;28;20031;-65
2023/05/22 04:09:10;;;;;;;19.17;10.13;;;;;;;22.61;49.17;101175.41;4960788;28;20499;-66
2023/05/22 04:11:36;;;;;;;17.73;9.48;;;;;;;22.59;49.46;101183.78;4976261;28;20039;-67
2023/05/22 04:14:05;;;;;;;18.02;9.70;;;;;;;22.57;49.61;101182.28;4975835;28;20123;-65
2023/05/22 04:16:30;;;;;;;18.17;10.07;;;;;;;22.54;49.28;101180.81;4975735;28;20023;-66
2023/05/22 04:18:56;;;;;;;20.50;10.30;;;;;;;22.56;49.37;101188.78;4959868;28;20061;-65
2023/05/22 04:21:23;;;;;;;17.70;9.63;;;;;;;22.54;49.77;101191.72;4959586;28;20503;-66
2023/05/22 04:23:48;;;;;;;18.48;9.77;;;;;;;22.54;48.94;101189.00;4976857;28;20034;-66
2023/05/22 04:26:16;;;;;;;23.98;9.98;;;;;;;22.54;48.97;101185.41;4975575;28;20023;-65
2023/05/22 04:28:44;;;;;;;19.55;10.18;;;;;;;22.51;49.38;101185.81;4975849;28;20034;-66
2023/05/22 04:31:11;;;;;;;24.23;10.70;;;;;;;22.50;49.15;101186.88;4977029;28;20475;-66
2023/05/22 04:33:37;;;;;;;15.80;9.32;;;;;;;22.51;49.72;101192.13;4976864;28;20042;-68
2023/05/22 04:36:03;;;;;;;20.70;11.25;;;;;;;22.48;49.21;101181.59;4975515;28;20037;-66
2023/05/22 04:38:29;;;;;;;22.95;10.95;;;;;;;22.48;49.19;101191.66;4976584;28;20470;-65
2023/05/22 04:40:54;;;;;;;22.17;11.00;;;;;;;22.49;49.41;101194.22;4975248;28;20069;-65
2023/05/22 04:43:22;;;;;;;24.15;11.82;;;;;;;22.49;49.02;101193.38;4959522;28;20031;-66
2023/05/22 04:45:47;;;;;;;23.33;12.98;;;;;;;22.45;49.58;101187.44;4975308;28;20406;-66
2023/05/22 04:48:14;;;;;;;26.25;12.77;;;;;;;22.46;49.30;101188.28;4976382;28;20038;-67
2023/05/22 04:50:39;;;;;;;31.40;13.75;;;;;;;22.46;49.50;101189.16;4975142;28;20039;-68
2023/05/22 04:53:04;;;;;;;27.35;12.13;;;;;;;22.46;49.21;101194.63;4976442;28;20034;-66
2023/05/22 04:55:32;;;;;;;25.90;13.15;;;;;;;22.45;49.65;101195.63;4976335;28;20066;-66
2023/05/22 04:57:59;;;;;;;27.77;13.38;;;;;;;22.43;49.93;101189.53;4976549;28;20018;-65
2023/05/22 05:00:27;;;;;;;28.27;12.30;;;;;;;22.46;50.10;101202.81;4974817;28;20062;-64
2023/05/22 05:02:52;;;;;;;25.00;13.43;;;;;;;22.47;49.58;101193.53;4975121;28;20114;-65
2023/05/22 05:05:18;;;;;;;29.52;15.18;;;;;;;22.45;49.95;101187.44;4975075;28;20084;-65
2023/05/22 05:07:43;;;;;;;28.38;13.40;;;;;;;22.46;49.84;101189.16;4975829;28;20054;-65
2023/05/22 05:10:09;;;;;;;26.77;13.27;;;;;;;22.48;50.03;101191.66;4959298;28;20065;-66
2023/05/22 05:12:34;;;;;;;31.42;14.65;;;;;;;22.48;50.49;101197.13;4976350;28;20035;-65
2023/05/22 05:15:00;;;;;;;30.63;15.52;;;;;;;22.49;49.50;101199.69;4974971;28;20035;-65
2023/05/22 05:17:25;;;;;;;29.92;14.63;;;;;;;22.48;49.55;101192.53;4958617;28;20050;-65
2023/05/22 05:19:50;;;;;;;36.58;14.52;;;;;;;22.51;50.28;101204.94;4974708;28;20035;-66
2023/05/22 05:22:16;;;;;;;30.00;14.18;;;;;;;22.52;49.67;101203.91;4976221;28;20095;-67
2023/05/22 05:24:41;;;;;;;30.92;14.82;;;;;;;22.51;49.36;101202.19;4974362;28;20081;-64
2023/05/22 05:27:07;;;;;;;33.03;15.80;;;;;;;22.50;49.74;101201.34;4958905;28;20494;-65
2023/05/22 05:29:32;;;;;;;30.30;14.18;;;;;;;22.50;49.55;101204.06;4976199;28;20101;-67
2023/05/22 05:31:58;;;;;;;31.20;13.55;;;;;;;22.47;50.58;101207.19;4974563;28;20375;-65
2023/05/22 05:34:23;;;;;;;29.75;12.80;;;;;;;22.47;49.35;101215.38;4975196;28;20038;-66
2023/05/22 05:36:48;;;;;;;36.85;14.82;;;;;;;22.47;50.48;101215.38;4974219;28;20035;-66
2023/05/22 05:39:14;;;;;;;26.92;14.52;;;;;;;22.48;50.44;101219.81;4974388;28;20034;-65
2023/05/22 05:41:39;;;;;;;30.25;14.98;;;;;;;22.50;50.62;101223.19;4975543;28;20053;-66
2023/05/22 05:44:05;;;;;;;34.85;14.45;;;;;;;22.55;50.00;101225.34;4958560;28;20114;-65
2023/05/22 05:46:30;;;;;;;27.90;14.43;;;;;;;22.54;49.57;101219.03;4974037;28;20039;-65
2023/05/22 05:48:57;;;;;;;28.40;14.02;;;;;;;22.59;50.47;101227.47;4974017;28;20386;-66
2023/05/22 05:51:22;;;;;;;30.58;14.80;;;;;;;22.59;50.47;101227.47;4989983;28;20026;-67
2023/05/22 05:53:48;;;;;;;36.53;15.73;;;;;;;22.59;50.49;101224.75;4994948;28;20407;-66
2023/05/22 05:56:14;;;;;;;34.47;16.15;;;;;;;22.59;49.74;101232.94;4993631;28;20037;-65
2023/05/22 05:58:39;;;;;;;32.00;14.40;;;;;;;22.57;49.85;101228.72;4993372;28;20022;-66
2023/05/22 06:01:04;;;;;;;30.70;14.07;;;;;;;22.59;50.35;101226.63;4977272;28;20410;-65
2023/05/22 06:03:30;;;;;;;32.13;15.13;;;;;;;22.63;49.90;101233.41;4994756;28;20039;-66
2023/05/22 06:05:56;;;;;;;36.60;16.02;;;;;;;22.61;50.28;101230.84;4976955;28;20069;-67
2023/05/22 06:08:21;;;;;;;37.60;16.05;;;;;;;22.62;49.91;101234.44;4977037;28;20034;-65
2023/05/22 06:10:47;;;;;;;34.88;15.30;;;;;;;22.62;50.07;101227.09;4993194;28;20121;-66
2023/05/22 06:13:12;;;;;;;31.17;15.70;;;;;;;22.62;50.21;101234.44;4961119;28;20030;-67
2023/05/22 06:15:38;;;;;;;29.15;14.48;;;;;;;22.59;50.47;101235.66;4977231;28;20042;-66
2023/05/22 06:18:04;;;;;;;28.92;15.18;;;;;;;22.56;50.38;101236.06;4992341;28;20034;-66
2023/05/22 06:20:29;;;;;;;38.15;15.40;;;;;;;22.56;50.08;101241.53;4976860;28;20095;-67
2023/05/22 06:22:55;;;;;;;35.67;16.27;;;;;;;22.54;50.88;101235.41;4993340;28;20053;-66
2023/05/22 06:25:22;;;;;;;35.95;16.20;;;;;;;22.57;50.07;101247.84;4992485;28;20042;-66
2023/05/22 06:27:48;;;;;;;32.70;15.93;;;;;;;22.54;50.34;101240.88;4994094;28;20026;-66
2023/05/22 06:30:14;;;;;;;36.45;16.77;;;;;;;22.51;50.90;101241.28;4992626;28;20376;-66
2023/05/22 06:32:39;;;;;;;34.17;15.93;;;;;;;22.48;50.47;101249.00;4992770;28;20038;-66
2023/05/22 06:35:05;;;;;;;33.65;15.90;;;;;;;22.54;50.28;101257.28;4992771;28;20041;-66
2023/05/22 06:37:34;;;;;;;39.78;17.00;;;;;;;22.55;49.79;101253.50;4994060;28;20056;-65
2023/05/22 06:39:59;;;;;;;36.25;16.13;;;;;;;22.54;50.50;101257.28;4977445;28;20030;-67
2023/05/22 06:42:25;;;;;;;37.60;17.70;;;;;;;22.56;50.69;101263.38;4976618;28;20037;-68
2023/05/22 06:44:51;;;;;;;38.40;17.13;;;;;;;22.59;50.72;101265.72;4992670;28;20041;-65
2023/05/22 06:47:16;;;;;;;36.50;17.80;;;;;;;22.64;50.37;101264.31;4993703;28;20034;-67
2023/05/22 06:49:41;;;;;;;37.95;17.98;;;;;;;22.66;50.59;101271.28;4958915;28;20475;-66
2023/05/22 06:52:07;;;;;;;32.40;16.55;;;;;;;22.71;49.68;101268.78;4957521;28;20034;-68
2023/05/22 06:54:32;;;;;;;43.45;19.38;;;;;;;22.73;49.70;101276.78;4973089;28;20042;-67
2023/05/22 06:56:58;;;;;;;43.00;17.92;;;;;;;22.75;50.43;101269.25;4973006;28;20039;-66
2023/05/22 06:59:23;;;;;;;44.75;20.20;;;;;;;22.74;50.02;101273.88;4973858;28;20526;-66
2023/05/22 07:01:49;;;;;;;40.88;19.77;;;;;;;22.72;50.18;101280.56;4941051;28;20133;-66
2023/05/22 07:04:14;;;;;;;39.13;17.15;;;;;;;22.70;49.92;101290.84;4973190;28;20037;-66
2023/05/22 07:06:40;;;;;;;37.15;18.60;;;;;;;22.69;50.49;101283.69;4972896;28;20505;-66
2023/05/22 07:09:06;;;;;;;34.60;18.17;;;;;;;22.71;49.71;101290.66;4974036;28;20453;-66
2023/05/22 07:11:32;;;;;;;44.08;18.65;;;;;;;22.72;50.81;101291.50;4972694;28;20050;-67
2023/05/22 07:13:57;;;;;;;40.83;18.70;;;;;;;22.68;50.52;101295.66;4957046;28;20109;-66
2023/05/22 07:16:24;;;;;;;44.13;18.90;;;;;;;22.66;49.94;101300.47;4957258;28;20041;-67
2023/05/22 07:18:49;;;;;;;41.85;18.42;;;;;;;22.58;50.41;101298.69;4956680;28;20525;-66
2023/05/22 07:21:15;;;;;;;39.83;19.35;;;;;;;22.57;49.93;101295.13;4972353;28;20035;-67
2023/05/22 07:23:40;;;;;;;43.00;20.25;;;;;;;22.57;49.79;101300.56;4973950;28;20071;-67
2023/05/22 07:26:06;;;;;;;38.03;18.23;;;;;;;22.58;49.65;101302.25;4972809;28;20101;-66
2023/05/22 07:28:32;;;;;;;43.78;19.63;;;;;;;22.64;50.81;101308.03;4956631;28;20022;-65
2023/05/22 07:30:57;;;;;;;42.78;20.33;;;;;;;22.66;50.74;101303.19;4963025;28;20022;-65
2023/05/22 07:33:22;;;;;;;43.22;20.13;;;;;;;22.69;50.45;101303.66;4963536;28;20065;-66
2023/05/22 07:35:48;;;;;;;44.67;20.23;;;;;;;22.76;50.56;101314.63;4977733;28;20078;-67
2023/05/22 07:38:14;;;;;;;44.60;20.83;;;;;;;22.79;49.37;101311.50;4976377;28;20085;-67
2023/05/22 07:40:39;;;;;;;42.28;19.90;;;;;;;22.80;50.41;101311.31;4977609;28;20078;-66
2023/05/22 07:43:04;;;;;;;41.88;18.67;;;;;;;22.80;49.90;101313.22;4976812;28;20078;-66
2023/05/22 07:45:30;;;;;;;48.85;22.13;;;;;;;22.79;50.48;101303.31;4960280;28;20066;-66
2023/05/22 07:47:57;;;;;;;46.08;20.45;;;;;;;22.81;49.73;101312.19;4976181;28;20403;-68
2023/05/22 07:50:25;;;;;;;49.22;21.40;;;;;;;22.81;50.42;101309.44;4976451;28;20506;-65
2023/05/22 07:52:51;;;;;;;46.90;20.20;;;;;;;22.80;50.16;101315.94;4976269;28;20089;-66
2023/05/22 07:55:16;;;;;;;48.00;21.63;;;;;;;22.81;49.84;101323.09;4960873;28;20437;-67
2023/05/22 07:57:42;;;;;;;46.97;19.77;;;;;;;22.88;49.34;101324.00;4976091;28;20513;-66
2023/05/22 08:00:12;;;;;;;50.10;20.20;;;;;;;22.92;49.88;101311.63;4976272;28;20061;-65
2023/05/22 08:02:37;;;;;;;50.85;21.40;;;;;;;22.97;49.49;101317.34;4960566;28;20042;-66
2023/05/22 08:05:03;;;;;;;41.13;20.38;;;;;;;22.97;49.65;101318.19;4959796;28;20035;-65
2023/05/22 08:07:29;;;;;;;50.95;21.00;;;;;;;22.99;49.34;101321.56;4977116;28;20023;-66
2023/05/22 08:09:54;;;;;;;51.85;22.13;;;;;;;23.04;50.39;101323.69;4960401;28;20124;-66
2023/05/22 08:12:20;;;;;;;53.53;22.40;;;;;;;23.08;50.11;101323.13;4976054;28;20458;-66
2023/05/22 08:14:45;;;;;;;49.13;22.80;;;;;;;23.13;50.14;101327.97;4975974;28;20035;-65
2023/05/22 08:17:11;;;;;;;49.15;22.38;;;;;;;23.14;49.48;101327.78;4959563;28;20039;-66
2023/05/22 08:19:36;;;;;;;53.25;21.00;;;;;;;23.06;49.05;101319.72;4975708;28;20027;-65
2023/05/22 08:22:02;;;;;;;48.78;22.17;;;;;;;23.11;49.80;101327.34;4976043;28;20027;-66
2023/05/22 08:24:29;;;;;;;54.58;23.02;;;;;;;23.12;49.32;101326.28;4992026;28;20058;-65
2023/05/22 08:26:56;;;;;;;44.80;20.35;;;;;;;23.14;49.90;101330.50;4975692;28;20042;-68
2023/05/22 08:29:21;;;;;;;51.92;21.45;;;;;;;23.17;49.42;101326.56;4959088;28;20039;-67
2023/05/22 08:31:46;;;;;;;49.78;22.73;;;;;;;23.24;49.94;101329.31;4963526;28;20038;-66
2023/05/22 08:34:12;;;;;;;50.47;22.27;;;;;;;23.25;49.36;101328.28;4956710;29;20407;-67
2023/05/22 08:36:37;;;;;;;45.35;21.00;;;;;;;23.25;48.96;101328.28;4956171;28;20031;-66
2023/05/22 08:39:03;;;;;;;51.45;22.25;;;;;;;23.29;49.94;101327.66;4956328;28;20495;-66
2023/05/22 08:41:28;;;;;;;57.35;23.52;;;;;;;23.32;49.49;101319.06;4955753;28;20035;-66
2023/05/22 08:43:54;;;;;;;50.90;21.80;;;;;;;23.37;48.96;101323.94;4957240;28;20162;-66
2023/05/22 08:46:24;;;;;;;59.22;22.77;;;;;;;23.51;48.91;101312.91;4958345;28;20031;-68
2023/05/22 08:48:50;;;;;;;38.72;19.80;;;;;;;23.62;48.45;101315.06;4965883;28;20038;-66
2023/05/22 08:51:18;;;;;;;53.25;21.48;;;;;;;23.74;48.39;101315.34;4956764;28;20035;-66
2023/05/22 08:53:45;;;;;;;49.35;21.58;;;;;;;23.86;48.69;101312.88;4973114;28;20046;-66
2023/05/22 08:56:10;;;;;;;57.72;22.48;;;;;;;23.93;48.68;101311.00;4972082;28;20114;-66
2023/05/22 08:58:36;;;;;;;54.75;21.75;;;;;;;24.05;49.03;101317.59;4956722;28;20114;-68
2023/05/22 09:01:03;;;;;;;47.08;19.65;;;;;;;24.06;48.37;101317.41;4975332;28;20074;-68
2023/05/22 09:03:31;;;;;;;45.85;19.77;;;;;;;24.13;48.98;101315.53;4958994;28;20475;-66
2023/05/22 09:05:58;;;;;;;46.28;21.05;;;;;;;24.19;48.91;101319.34;4976278;28;20069;-66
2023/05/22 09:08:24;;;;;;;43.75;21.23;;;;;;;24.22;48.53;101324.41;4974882;28;20033;-67
2023/05/22 09:10:49;;;;;;;49.35;21.40;;;;;;;24.25;48.91;101313.91;4976170;28;20031;-67
2023/05/22 09:13:29;;;;;;;51.20;21.67;;;;;;;24.32;48.77;101319.38;4958994;28;20061;-68
2023/05/22 09:16:16;;;;;;;53.47;21.10;;;;;;;24.37;48.73;101316.88;4974795;28;20047;-68
2023/05/22 09:18:41;;;;;;;49.25;22.25;;;;;;;24.44;48.97;101314.13;4990781;28;20518;-66
2023/05/22 09:21:08;;;;;;;46.88;22.77;;;;;;;24.51;47.90;101315.84;4974897;28;20137;-66
2023/05/22 09:23:33;;;;;;;57.78;22.73;;;;;;;24.53;48.45;101316.50;4958625;28;20038;-66
2023/05/22 09:26:00;;;;;;;56.55;24.95;;;;;;;24.51;48.68;101315.84;4974204;28;20434;-66
2023/05/22 09:28:25;;;;;;;54.92;21.40;;;;;;;24.53;48.54;101315.63;4974950;28;20037;-67
2023/05/22 09:30:52;;;;;;;59.35;24.35;;;;;;;24.55;48.10;101319.84;4974433;28;20129;-66
2023/05/22 09:33:18;;;;;;;52.67;23.45;;;;;;;24.56;48.66;101316.06;5000864;28;20567;-67
2023/05/22 09:35:48;;;;;;;54.70;23.17;;;;;;;24.60;48.36;101313.75;4974695;28;20085;-67
2023/05/22 09:38:14;;;;;;;54.85;23.88;;;;;;;24.63;48.76;101314.19;4974738;28;20563;-66
2023/05/22 09:40:40;;;;;;;56.47;23.25;;;;;;;24.67;48.08;101306.38;4954845;28;20045;-66
2023/05/22 09:43:09;;;;;;;53.75;23.23;;;;;;;24.67;48.11;101311.88;4939451;29;20023;-67
2023/05/22 09:45:36;;;;;;;54.20;23.60;;;;;;;24.67;48.62;101311.88;4978574;28;20399;-67
2023/05/22 09:48:05;;;;;;;57.13;25.02;;;;;;;24.68;48.84;101319.03;4975145;28;20035;-66
2023/05/22 09:50:34;;;;;;;50.58;22.10;;;;;;;24.72;48.62;101315.66;4975359;28;20039;-67
2023/05/22 09:53:02;;;;;;;56.35;23.80;;;;;;;24.75;48.39;101309.78;4969132;28;20039;-66
2023/05/22 09:55:27;;;;;;;59.38;23.17;;;;;;;24.78;48.57;101322.19;4974395;28;20424;-67
2023/05/22 09:57:53;;;;;;;56.38;23.63;;;;;;;24.80;48.01;101323.72;4957518;28;20065;-66
2023/05/22 10:00:19;;;;;;;52.75;22.10;;;;;;;24.77;48.64;101321.34;4988684;28;20078;-66
2023/05/22 10:02:46;;;;;;;74.28;24.45;;;;;;;24.76;48.57;101327.06;4993427;28;20458;-67
2023/05/22 10:05:20;;;;;;;55.45;24.40;;;;;;;24.72;48.33;101326.63;4993397;28;20077;-66
2023/05/22 10:07:50;;;;;;;60.50;25.17;;;;;;;24.70;48.59;101315.03;4977946;28;20025;-66
2023/05/22 10:10:17;;;;;;;66.80;24.27;;;;;;;24.75;48.52;101328.94;4993869;28;20494;-65
2023/05/22 10:12:54;;;;;;;56.92;26.42;;;;;;;24.78;48.61;101314.84;4977078;28;20074;-66
2023/05/22 10:15:20;;;;;;;56.17;25.50;;;;;;;24.84;48.46;101325.00;4993213;28;20041;-66
2023/05/22 10:17:46;;;;;;;53.63;23.50;;;;;;;24.89;48.55;101316.97;4992813;28;20042;-65
2023/05/22 10:20:12;;;;;;;59.90;24.60;;;;;;;24.92;48.61;101323.94;4993252;28;20114;-66
2023/05/22 10:22:37;;;;;;;60.60;25.08;;;;;;;24.96;48.25;101322.44;4993223;28;20093;-66
2023/05/22 10:25:04;;;;;;;63.85;24.83;;;;;;;25.02;48.51;101320.75;4994578;28;20025;-65
2023/05/22 10:27:29;;;;;;;57.67;25.58;;;;;;;25.04;49.07;101316.78;4992965;28;20035;-66
2023/05/22 10:30:15;;;;;;;54.50;24.10;;;;;;;25.09;48.11;101318.88;4992575;28;20458;-66
2023/05/22 10:32:45;;;;;;;60.92;25.58;;;;;;;25.19;48.50;101313.78;4992778;28;20038;-65
2023/05/22 10:35:20;;;;;;;58.60;25.42;;;;;;;25.27;48.34;101310.81;4992619;28;20034;-66
2023/05/22 10:37:53;;;;;;;56.03;24.85;;;;;;;25.35;48.14;101316.06;4992576;28;20117;-65
2023/05/22 10:40:29;;;;;;;58.72;23.80;;;;;;;25.40;48.14;101313.56;4993070;28;20054;-65
2023/05/22 10:42:58;;;;;;;66.80;25.15;;;;;;;25.43;47.80;101310.38;4990712;28;20039;-65
2023/05/22 10:45:28;;;;;;;60.67;23.90;;;;;;;25.46;47.70;101307.22;4989270;28;20082;-66
2023/05/22 10:48:14;;;;;;;59.35;24.88;;;;;;;25.48;47.78;101304.28;4973916;28;20066;-66
2023/05/22 10:50:49;;;;;;;60.42;23.85;;;;;;;25.55;47.82;101311.41;4974252;28;20114;-65
2023/05/22 10:53:25;;;;;;;66.82;25.48;;;;;;;25.55;48.19;101310.56;4974313;28;20037;-65
2023/05/22 10:55:51;;;;;;;64.30;25.92;;;;;;;25.58;47.56;101299.16;4973463;28;20054;-66
2023/05/22 10:58:24;;;;;;;67.55;27.48;;;;;;;25.63;47.79;101302.13;4973831;28;20090;-65
2023/05/22 11:01:12;;;;;;;70.40;28.92;;;;;;;25.73;47.99;101308.84;4972867;28;20418;-67
2023/05/22 11:03:56;;;;;;;60.80;25.45;;;;;;;25.87;47.41;101307.72;4974443;28;20042;-65
2023/05/22 11:06:37;;;;;;;63.03;25.58;;;;;;;25.92;47.74;101302.44;4972445;28;20045;-65
2023/05/22 11:09:31;;;;;;;62.00;25.95;;;;;;;25.95;47.35;101299.25;4974397;28;20035;-66
2023/05/22 11:12:15;;;;;;;71.10;26.83;;;;;;;25.98;47.07;101296.06;4972893;28;20094;-65